Latest Weather Observations for Mount Isa

IDQ60801

Issued at 5:12 am EST Monday 19 November 2018 (issued every 10 minutes, with the page automatically refreshed every 10 minutes)

About weather observations | Map of weather stations | Latest weather observations for QLD | Other Formats
Station Details ID: 029127 Name: MOUNT ISA AERO Lat: -20.68 Lon: 139.49 Height: 340.3 m
Data from the previous 72 hours. | See also: Recent months at Mount Isa
Date/Time
EST
Temp
°C
App
Temp
°C
Dew
Point
°C
Rel
Hum
%
Delta-T
°C
Wind Press
QNH
hPa
Press
MSL
hPa
Rain since
9am
mm
Dir  Spd
km/h
Gust
km/h
Spd
kts
Gust
kts
19/05:00am 23.2 26.9 20.0 82 2.1 CALM 0 0 0 0 1010.8 1008.4 7.2
19/04:30am 23.4 26.8 19.3 78 2.7 CALM 0 0 0 0 1010.6 1008.2 7.2
19/04:00am 23.5 25.7 19.2 77 2.8 N 6 6 3 3 1010.5 1008.1 7.2
19/03:30am 23.6 25.7 18.9 75 3.0 N 6 7 3 4 1010.6 1008.2 7.2
19/03:00am 23.7 25.3 19.2 76 2.9 NNE 9 15 5 8 1010.8 1008.4 7.2
19/02:30am 23.9 24.8 19.2 75 3.0 NNE 13 17 7 9 1011.1 1008.7 7.2
19/02:00am 24.1 24.2 19.2 74 3.2 NNE 17 20 9 11 1011.6 1009.2 7.2
19/01:30am 24.1 24.2 19.2 74 3.2 NE 17 20 9 11 1011.8 1009.4 7.2
19/01:00am 24.2 24.8 19.5 75 3.1 NNE 15 19 8 10 1011.9 1009.5 7.2
19/12:30am 24.2 25.8 19.9 77 2.8 N 11 13 6 7 1012.5 1010.1 7.2
19/12:00am 24.3 26.3 20.0 77 2.8 N 9 15 5 8 1013.0 1010.6 7.2
 
Date/Time
EST
Temp
°C
App
Temp
°C
Dew
Point
°C
Rel
Hum
%
Delta-T
°C
Wind Press
QNH
hPa
Press
MSL
hPa
Rain since
9am
mm
Dir  Spd
km/h
Gust
km/h
Spd
kts
Gust
kts
18/11:30pm 24.3 25.5 19.8 76 2.9 NNE 13 17 7 9 1013.3 1010.9 7.2
18/11:00pm 24.5 25.3 19.8 75 3.1 NE 15 19 8 10 1013.4 1011.0 7.2
18/10:30pm 24.5 26.5 20.0 76 3.0 NNE 9 15 5 8 1013.7 1011.3 7.2
18/10:00pm 25.0 25.3 19.6 72 3.5 NNE 17 22 9 12 1013.1 1010.7 7.2
18/09:30pm 25.4 25.1 19.1 68 4.1 NNE 19 26 10 14 1012.6 1010.2 7.2
18/09:00pm 26.0 25.0 18.9 65 4.6 NNE 22 32 12 17 1011.7 1009.3 7.2
18/08:30pm 26.6 26.9 18.7 62 5.1 NE 15 20 8 11 1010.6 1008.2 7.2
18/08:00pm 26.2 27.0 19.1 65 4.6 NE 13 15 7 8 1010.3 1007.9 7.2
18/07:30pm 27.1 27.7 18.7 60 5.4 NNE 13 17 7 9 1010.0 1007.6 7.2
18/07:00pm 27.5 25.5 17.4 54 6.4 NNE 24 32 13 17 1010.2 1007.8 7.2
18/06:30pm 29.1 28.9 16.6 46 7.9 NE 13 17 7 9 1009.6 1007.2 7.2
18/06:00pm 29.9 28.1 16.0 43 8.8 NE 20 30 11 16 1009.3 1006.9 7.2
18/05:30pm 30.4 25.5 15.3 40 9.4 W 35 43 19 23 1008.4 1006.0 7.2
18/05:10pm 29.9 23.9 14.4 38 9.5 W 39 59 21 32 1008.3 1005.9 7.2
18/05:00pm 29.8 24.4 15.9 43 8.7 W 39 54 21 29 1008.3 1005.9 7.2
18/04:30pm 32.7 29.3 14.8 34 11.2 W 26 37 14 20 1007.9 1005.5 7.2
18/04:00pm 34.2 34.2 15.1 31 12.1 W 9 30 5 16 1007.6 1005.2 7.2
18/03:30pm 33.5 33.1 18.0 39 10.1 SSW 17 20 9 11 1007.7 1005.3 7.2
18/03:00pm 33.0 32.3 15.5 35 11.1 S 13 15 7 8 1008.2 1005.8 7.2
18/02:48pm 29.6 32.9 24.5 74 3.6 SE 15 17 8 9 1008.6 1006.1 7.2
18/02:30pm 28.5 28.7 17.7 52 6.9 E 13 19 7 10 1009.1 1006.7 5.8
18/02:24pm 30.5 30.1 16.1 41 9.1 NNE 13 19 7 10 1009.6 1007.2 3.4
18/02:23pm 30.8 29.9 14.8 37 9.9 NNE 13 19 7 10 1009.5 1007.1 2.6
18/02:00pm 36.1 33.4 13.6 26 14.0 N 20 32 11 17 1009.1 1006.7 0.0
18/01:30pm 37.2 34.8 12.6 23 15.1 N 17 33 9 18 1009.4 1007.0 0.0
18/01:00pm 37.0 34.0 12.4 23 15.1 NW 20 32 11 17 1010.0 1007.6 0.0
18/12:30pm 37.3 34.9 12.7 23 15.1 NNE 17 28 9 15 1010.5 1008.1 0.0
18/12:00pm 37.2 35.4 14.5 26 14.3 NNW 17 30 9 16 1010.8 1008.4 0.0
18/11:30am 34.9 32.8 12.5 25 13.6 ENE 15 20 8 11 1011.1 1008.7 0.0
18/11:00am 35.2 33.8 13.4 27 13.5 NE 13 20 7 11 1011.4 1009.0 0.0
18/10:30am 34.8 33.3 13.0 26 13.4 ENE 13 19 7 10 1011.6 1009.2 0.0
18/10:00am 33.9 33.6 13.4 29 12.6 NW 7 13 4 7 1011.7 1009.3 0.0
18/09:30am 33.2 33.3 13.8 31 12.0 E 6 9 3 5 1011.6 1009.2 0.0
18/09:00am 32.2 31.9 14.3 33 11.1 W 9 15 5 8 1011.4 1009.0 0.0
18/08:30am 30.8 31.2 15.2 38 9.7 W 7 11 4 6 1011.3 1008.9 0.0
18/08:00am 29.9 29.4 17.0 45 8.2 W 15 19 8 10 1010.9 1008.5 0.0
18/07:30am 28.5 29.0 17.4 51 7.1 W 11 17 6 9 1010.7 1008.3 0.0
18/07:00am 27.5 29.6 18.2 57 6.0 WSW 4 9 2 5 1010.5 1008.1 0.0
18/06:30am 25.6 28.6 18.5 65 4.6 CALM 0 0 0 0 1010.4 1008.0 0.0
18/06:00am 25.3 27.1 17.5 62 4.9 SSW 4 7 2 4 1010.0 1007.6 0.0
18/05:30am 26.2 27.6 17.3 58 5.6 NNE 6 7 3 4 1009.8 1007.4 0.0
18/05:00am 26.9 28.1 17.4 56 6.0 N 7 9 4 5 1009.4 1007.0 0.0
18/04:30am 26.5 27.6 17.0 56 6.0 W 7 9 4 5 1009.3 1006.9 0.0
18/04:00am 26.8 28.6 17.3 56 6.0 WNW 4 7 2 4 1009.3 1006.9 0.0
18/03:30am 26.3 28.6 16.8 56 6.0 CALM 0 6 0 3 1009.5 1007.1 0.0
18/03:00am 26.9 27.3 16.2 52 6.7 N 9 11 5 6 1009.5 1007.1 0.0
18/02:30am 27.7 29.2 15.7 48 7.5 WNW 2 6 1 3 1009.6 1007.2 0.0
18/02:00am 28.3 28.4 15.6 46 7.9 W 9 11 5 6 1009.7 1007.3 0.0
18/01:30am 28.7 28.3 15.2 43 8.4 WNW 11 15 6 8 1009.9 1007.5 0.0
18/01:00am 29.0 28.7 15.5 44 8.4 WNW 11 17 6 9 1010.3 1007.9 0.0
18/12:30am 29.0 28.2 16.2 46 8.1 NNE 15 19 8 10 1010.2 1007.8 0.0
18/12:00am 29.2 27.9 15.7 44 8.4 N 17 19 9 10 1010.5 1008.1 0.0
 
Date/Time
EST
Temp
°C
App
Temp
°C
Dew
Point
°C
Rel
Hum
%
Delta-T
°C
Wind Press
QNH
hPa
Press
MSL
hPa
Rain since
9am
mm
Dir  Spd
km/h
Gust
km/h
Spd
kts
Gust
kts
17/11:30pm 29.7 29.5 15.8 43 8.7 NNE 11 15 6 8 1011.2 1008.8 0.0
17/11:00pm 29.7 31.5 15.4 42 8.9 CALM 0 0 0 0 1011.8 1009.4 0.0
17/10:30pm 30.0 29.5 14.9 39 9.3 ENE 11 15 6 8 1011.7 1009.3 0.0
17/10:00pm 30.3 29.7 15.6 41 9.2 E 13 20 7 11 1011.3 1008.9 0.0
17/09:30pm 29.9 31.6 15.2 41 9.1 CALM 0 0 0 0 1010.6 1008.2 0.0
17/09:00pm 30.0 29.9 14.9 39 9.4 NW 9 15 5 8 1010.2 1007.8 0.0
17/08:30pm 30.0 30.2 15.7 42 9.0 NW 9 11 5 6 1010.0 1007.6 0.0
17/08:00pm 30.5 30.4 15.0 39 9.6 NW 9 15 5 8 1009.6 1007.2 0.0
17/07:30pm 30.1 29.2 15.8 42 9.0 N 15 19 8 10 1009.6 1007.2 0.0
17/07:00pm 30.5 28.7 15.4 40 9.4 NNE 19 22 10 12 1009.7 1007.3 0.0
17/06:30pm 31.3 29.1 14.9 37 10.2 NNE 20 28 11 15 1009.7 1007.3 0.0
17/06:00pm 32.2 29.4 14.3 33 11.1 NNE 22 32 12 17 1010.0 1007.6 0.0
17/05:30pm 33.8 30.7 13.3 29 12.6 NNE 22 32 12 17 1009.7 1007.3 0.0
17/05:00pm 33.5 28.9 13.5 29 12.3 SE 30 44 16 24 1009.4 1007.0 0.0
17/04:30pm 33.9 30.8 13.4 29 12.6 E 22 32 12 17 1008.8 1006.3 0.0
17/04:08pm 35.1 30.4 12.1 25 13.9 E 28 48 15 26 1008.2 1005.8 0.0
17/04:00pm 35.6 31.1 12.5 24 14.1 E 28 41 15 22 1008.1 1005.7 0.0
17/03:30pm 38.9 35.9 11.9 20 16.5 NW 19 28 10 15 1008.0 1005.6 0.0
17/03:00pm 38.7 35.8 10.9 19 16.8 NW 17 26 9 14 1008.3 1005.9 0.0
17/02:30pm 37.5 34.2 11.5 21 15.7 NNW 20 32 11 17 1009.0 1006.6 0.0
17/02:00pm 37.6 33.0 12.3 22 15.5 NNW 28 35 15 19 1009.7 1007.3 0.0
17/01:30pm 37.4 33.8 9.9 19 16.3 NW 19 30 10 16 1010.3 1007.9 0.0
17/01:00pm 38.6 35.5 11.6 20 16.5 NW 19 26 10 14 1010.6 1008.2 0.0
17/12:30pm 38.1 34.9 11.2 20 16.3 NE 19 28 10 15 1011.1 1008.7 0.0
17/12:00pm 37.5 35.9 11.5 21 15.8 NE 11 19 6 10 1011.6 1009.2 0.0
17/11:30am 37.1 35.4 11.1 21 15.6 ENE 11 19 6 10 1012.0 1009.6 0.0
17/11:00am 36.7 35.9 12.8 24 14.7 SSE 9 15 5 8 1012.4 1010.0 0.0
17/10:30am 35.4 34.4 13.5 26 13.5 NNE 11 17 6 9 1012.7 1010.3 0.0
17/10:00am 34.5 33.1 13.3 27 13.0 ENE 13 19 7 10 1012.9 1010.5 0.0
17/09:30am 33.2 33.2 14.3 32 11.7 ESE 7 13 4 7 1012.9 1010.5 0.0
17/09:00am 31.5 32.0 15.5 38 10.0 SE 7 11 4 6 1012.8 1010.4 0.0
17/08:30am 31.3 32.2 16.1 40 9.6 SE 6 9 3 5 1012.9 1010.5 0.0
17/08:00am 30.3 31.2 16.7 44 8.7 WSW 7 11 4 6 1012.8 1010.4 0.0
17/07:30am 29.3 30.3 17.8 50 7.4 W 9 13 5 7 1012.5 1010.1 0.0
17/07:00am 28.6 30.6 18.7 55 6.5 WSW 6 9 3 5 1012.3 1009.9 0.0
17/06:30am 26.1 29.7 19.7 68 4.2 CALM 0 4 0 2 1011.9 1009.5 0.0
17/06:00am 25.5 27.2 19.4 69 4.0 WSW 9 9 5 5 1011.6 1009.2 0.0
17/05:30am 25.9 27.6 19.3 67 4.3 WSW 9 11 5 6 1011.3 1008.9 0.0
17/05:00am 26.1 29.3 18.8 64 4.7 CALM 0 0 0 0 1011.2 1008.8 0.0
17/04:30am 26.5 29.3 18.9 63 4.9 WSW 2 7 1 4 1010.9 1008.5 0.0
17/04:00am 27.0 30.1 18.6 60 5.4 CALM 0 9 0 5 1010.8 1008.4 0.0
17/03:30am 27.8 29.6 18.8 58 5.9 NW 7 9 4 5 1010.9 1008.5 0.0
17/03:00am 28.5 29.7 18.3 54 6.6 SW 9 15 5 8 1011.0 1008.6 0.0
17/02:30am 28.5 29.5 18.6 55 6.4 SSW 11 17 6 9 1011.2 1008.8 0.0
17/02:00am 28.7 29.3 18.5 54 6.6 SSW 13 19 7 10 1011.3 1008.9 0.0
17/01:30am 28.6 28.7 18.4 54 6.6 W 15 20 8 11 1011.3 1008.9 0.0
17/01:00am 28.7 29.5 18.2 53 6.8 WNW 11 13 6 7 1011.7 1009.3 0.0
17/12:30am 28.6 28.5 17.8 52 6.9 WNW 15 17 8 9 1011.9 1009.5 0.0
17/12:00am 26.3 27.8 17.6 58 5.5 WNW 6 13 3 7 1012.4 1010.0 0.0
 
Date/Time
EST
Temp
°C
App
Temp
°C
Dew
Point
°C
Rel
Hum
%
Delta-T
°C
Wind Press
QNH
hPa
Press
MSL
hPa
Rain since
9am
mm
Dir  Spd
km/h
Gust
km/h
Spd
kts
Gust
kts
16/11:30pm 26.9 28.3 16.5 53 6.5 SSW 4 7 2 4 1012.5 1010.1 0.0
16/11:00pm 27.5 29.3 16.5 51 6.9 W 2 7 1 4 1012.8 1010.4 0.0
16/10:30pm 28.2 28.6 14.8 44 8.2 NNE 6 7 3 4 1012.8 1010.4 0.0
16/10:00pm 29.6 28.2 14.6 40 9.2 NNE 15 20 8 11 1012.7 1010.3 0.0
16/09:30pm 29.5 28.9 15.6 43 8.7 NNE 13 17 7 9 1012.6 1010.2 0.0
16/09:00pm 30.3 28.5 14.4 38 9.8 NE 17 22 9 12 1012.4 1010.0 0.0
16/08:30pm 31.1 27.7 13.8 34 10.6 NE 24 33 13 18 1012.2 1009.8 0.0
16/08:00pm 31.9 27.7 13.6 32 11.2 ENE 28 39 15 21 1011.8 1009.4 0.0
16/07:38pm 32.7 30.9 13.4 31 11.8 NNE 15 41 8 22 1011.2 1008.8 0.0
16/07:30pm 32.9 31.4 13.0 30 12.1 N 13 15 7 8 1010.9 1008.5 0.0
16/07:00pm 33.8 33.5 13.3 29 12.6 N 7 9 4 5 1010.4 1008.0 0.0
16/06:30pm 35.2 34.2 12.2 25 13.9 NE 9 11 5 6 1010.0 1007.6 0.0
16/06:00pm 35.2 32.5 11.6 24 14.2 E 17 22 9 12 1009.8 1007.4 0.0
16/05:30pm 35.7 31.2 12.6 25 14.1 E 28 41 15 22 1009.6 1007.2 0.0
16/05:21pm 35.9 33.0 12.2 24 14.4 ESE 19 43 10 23 1009.6 1007.2 0.0
16/05:00pm 37.8 35.1 10.2 19 16.4 E 15 19 8 10 1009.5 1007.1 0.0
16/04:30pm 38.4 35.6 9.9 18 16.9 E 15 24 8 13 1009.4 1007.0 0.0
16/04:00pm 37.6 36.5 10.0 19 16.4 ENE 6 13 3 7 1009.6 1007.2 0.0
16/03:30pm 37.2 34.5 10.5 20 15.9 E 15 22 8 12 1009.9 1007.5 0.0
16/03:00pm 37.6 35.6 10.0 19 16.4 N 11 19 6 10 1010.3 1007.9 0.0
16/02:30pm 38.0 35.7 10.4 19 16.5 NNE 13 15 7 8 1010.8 1008.4 0.0
16/02:00pm 37.1 34.2 9.6 19 16.2 NNE 15 20 8 11 1011.1 1008.7 0.0
16/01:30pm 38.3 35.5 11.4 20 16.3 NE 17 28 9 15 1011.6 1009.2 0.0
16/01:00pm 37.3 34.3 10.6 20 16.0 ENE 17 30 9 16 1012.2 1009.8 0.0
16/12:30pm 37.9 35.5 12.5 22 15.6 NNE 17 24 9 13 1012.7 1010.3 0.0
16/12:00pm 36.6 34.0 10.7 21 15.4 E 15 26 8 14 1013.4 1011.0 0.0
16/11:30am 36.4 34.5 11.9 23 14.9 ENE 13 24 7 13 1013.8 1011.4 0.0
16/11:00am 35.5 33.4 11.2 23 14.5 NNE 13 19 7 10 1014.1 1011.7 0.0
16/10:30am 34.8 31.8 10.6 23 14.3 NE 17 26 9 14 1014.5 1012.2 0.0
16/10:00am 34.9 33.1 12.0 25 13.8 ESE 13 26 7 14 1014.7 1012.3 0.0
16/09:30am 33.8 32.0 11.0 25 13.5 ESE 11 17 6 9 1014.8 1012.4 0.0
16/09:00am 33.2 31.1 11.1 26 13.1 SSE 13 17 7 9 1014.7 1012.3 0.0
16/08:30am 31.6 29.7 11.9 30 11.7 SSE 13 17 7 9 1014.9 1012.5 0.0
16/08:00am 30.1 28.6 13.0 35 10.3 S 13 15 7 8 1014.8 1012.4 0.0
16/07:30am 28.6 28.3 14.4 41 8.7 S 9 13 5 7 1014.3 1012.0 0.0
16/07:00am 26.7 28.5 18.8 62 5.1 S 7 9 4 5 1014.2 1011.9 0.0
16/06:30am 23.4 26.9 19.5 79 2.5 CALM 0 0 0 0 1013.8 1011.4 0.0
16/06:00am 22.9 25.6 18.7 77 2.7 WSW 2 6 1 3 1013.6 1011.2 0.0
16/05:30am 24.0 27.3 19.1 74 3.2 CALM 0 0 0 0 1013.3 1010.9 0.0

Other Formats:

Comma delimited format used in spreadsheet applications
http://www.bom.gov.au/fwo/IDQ60801/IDQ60801.94332.axf

JavaScript Object Notation format (JSON) in row-major order
http://www.bom.gov.au/fwo/IDQ60801/IDQ60801.94332.json